sensor_id;sensor_type;location;lat;lon;timestamp;pressure;altitude;pressure_sealevel;temperature;humidity
76815;BME280;65768;49.906;19.384;2023-04-30T00:14:39;98136.80;;;10.26;100.00
76815;BME280;65768;49.906;19.384;2023-04-30T00:24:37;98144.27;;;10.24;100.00
76815;BME280;65768;49.906;19.384;2023-04-30T00:31:03;98147.59;;;10.22;100.00
76815;BME280;65768;49.906;19.384;2023-04-30T00:46:47;98155.25;;;10.23;100.00
76815;BME280;65768;49.906;19.384;2023-04-30T00:50:07;98157.34;;;10.22;100.00
76815;BME280;65768;49.906;19.384;2023-04-30T00:56:54;98159.23;;;10.15;100.00
76815;BME280;65768;49.906;19.384;2023-04-30T01:09:43;98156.45;;;10.07;100.00
76815;BME280;65768;49.906;19.384;2023-04-30T01:58:06;98185.32;;;9.88;100.00
76815;BME280;65768;49.906;19.384;2023-04-30T02:18:41;98195.21;;;9.79;100.00
76815;BME280;65768;49.906;19.384;2023-04-30T02:48:19;98206.30;;;9.65;100.00
76815;BME280;65768;49.906;19.384;2023-04-30T03:01:39;98212.56;;;9.64;100.00
76815;BME280;65768;49.906;19.384;2023-04-30T03:11:46;98221.11;;;9.65;100.00
76815;BME280;65768;49.906;19.384;2023-04-30T03:18:44;98219.89;;;9.66;100.00
76815;BME280;65768;49.906;19.384;2023-04-30T03:25:03;98229.30;;;9.67;100.00
76815;BME280;65768;49.906;19.384;2023-04-30T03:44:35;98237.66;;;9.68;100.00
76815;BME280;65768;49.906;19.384;2023-04-30T03:50:44;98244.25;;;9.66;100.00
76815;BME280;65768;49.906;19.384;2023-04-30T03:53:38;98247.92;;;9.66;100.00
76815;BME280;65768;49.906;19.384;2023-04-30T04:03:39;98257.80;;;9.60;100.00
76815;BME280;65768;49.906;19.384;2023-04-30T04:16:49;98289.15;;;9.31;100.00
76815;BME280;65768;49.906;19.384;2023-04-30T04:50:41;98373.64;;;8.12;100.00
76815;BME280;65768;49.906;19.384;2023-04-30T05:27:25;98453.48;;;7.62;100.00
76815;BME280;65768;49.906;19.384;2023-04-30T06:30:48;98541.22;;;8.03;100.00
76815;BME280;65768;49.906;19.384;2023-04-30T06:54:38;98547.86;;;8.64;100.00
76815;BME280;65768;49.906;19.384;2023-04-30T07:18:05;98562.69;;;9.58;99.51
76815;BME280;65768;49.906;19.384;2023-04-30T07:21:16;98559.45;;;9.48;97.01
76815;BME280;65768;49.906;19.384;2023-04-30T07:24:10;98559.73;;;9.57;96.14
76815;BME280;65768;49.906;19.384;2023-04-30T07:36:42;98566.47;;;9.71;90.63
76815;BME280;65768;49.906;19.384;2023-04-30T07:40:03;98573.84;;;9.26;90.81
76815;BME280;65768;49.906;19.384;2023-04-30T07:42:45;98573.36;;;9.47;92.54
76815;BME280;65768;49.906;19.384;2023-04-30T07:48:34;98577.68;;;9.78;92.33
76815;BME280;65768;49.906;19.384;2023-04-30T07:51:18;98577.98;;;10.14;91.51
76815;BME280;65768;49.906;19.384;2023-04-30T07:54:28;98577.00;;;10.41;91.11
76815;BME280;65768;49.906;19.384;2023-04-30T07:57:18;98575.00;;;10.32;89.51
76815;BME280;65768;49.906;19.384;2023-04-30T08:00:17;98581.77;;;10.52;90.02
76815;BME280;65768;49.906;19.384;2023-04-30T08:03:17;98586.38;;;10.94;89.27
76815;BME280;65768;49.906;19.384;2023-04-30T08:06:23;98593.58;;;11.01;88.39
76815;BME280;65768;49.906;19.384;2023-04-30T08:08:55;98592.33;;;10.99;87.26
76815;BME280;65768;49.906;19.384;2023-04-30T08:11:29;98593.28;;;11.18;86.98
76815;BME280;65768;49.906;19.384;2023-04-30T08:14:11;98592.59;;;10.82;85.98
76815;BME280;65768;49.906;19.384;2023-04-30T08:16:54;98590.71;;;10.88;86.87
76815;BME280;65768;49.906;19.384;2023-04-30T08:19:33;98589.72;;;10.42;85.13
76815;BME280;65768;49.906;19.384;2023-04-30T08:25:14;98600.36;;;10.70;83.85
76815;BME280;65768;49.906;19.384;2023-04-30T08:30:43;98600.56;;;11.06;84.59
76815;BME280;65768;49.906;19.384;2023-04-30T08:33:38;98594.01;;;11.24;83.29
76815;BME280;65768;49.906;19.384;2023-04-30T08:36:14;98595.27;;;11.30;82.44
76815;BME280;65768;49.906;19.384;2023-04-30T08:38:57;98589.08;;;11.64;81.83
76815;BME280;65768;49.906;19.384;2023-04-30T08:41:38;98579.84;;;11.81;79.39
76815;BME280;65768;49.906;19.384;2023-04-30T08:44:15;98583.90;;;11.93;79.52
76815;BME280;65768;49.906;19.384;2023-04-30T08:50:14;98579.86;;;12.38;76.06
76815;BME280;65768;49.906;19.384;2023-04-30T08:56:13;98580.41;;;12.22;73.85
76815;BME280;65768;49.906;19.384;2023-04-30T08:58:53;98580.73;;;12.44;72.83
76815;BME280;65768;49.906;19.384;2023-04-30T09:01:52;98582.63;;;12.67;73.62
76815;BME280;65768;49.906;19.384;2023-04-30T09:04:47;98584.38;;;12.68;73.63
76815;BME280;65768;49.906;19.384;2023-04-30T09:07:40;98580.41;;;13.08;72.51
76815;BME280;65768;49.906;19.384;2023-04-30T09:10:41;98577.05;;;13.16;73.23
76815;BME280;65768;49.906;19.384;2023-04-30T09:16:50;98577.27;;;13.09;71.10
76815;BME280;65768;49.906;19.384;2023-04-30T09:19:54;98577.29;;;13.47;69.56
76815;BME280;65768;49.906;19.384;2023-04-30T09:25:59;98589.55;;;12.89;67.07
76815;BME280;65768;49.906;19.384;2023-04-30T09:29:03;98589.27;;;12.72;66.87
76815;BME280;65768;49.906;19.384;2023-04-30T09:31:46;98589.44;;;12.72;67.81
76815;BME280;65768;49.906;19.384;2023-04-30T09:34:46;98590.88;;;12.49;67.06
76815;BME280;65768;49.906;19.384;2023-04-30T09:40:40;98587.20;;;13.17;63.65
76815;BME280;65768;49.906;19.384;2023-04-30T09:46:29;98593.23;;;13.45;61.93
76815;BME280;65768;49.906;19.384;2023-04-30T09:49:31;98589.73;;;13.44;62.06
76815;BME280;65768;49.906;19.384;2023-04-30T09:52:32;98581.83;;;13.50;61.19
76815;BME280;65768;49.906;19.384;2023-04-30T09:55:16;98578.77;;;13.30;60.56
76815;BME280;65768;49.906;19.384;2023-04-30T09:58:04;98578.95;;;13.30;60.39
76815;BME280;65768;49.906;19.384;2023-04-30T10:00:50;98578.08;;;13.26;60.14
76815;BME280;65768;49.906;19.384;2023-04-30T10:03:33;98576.63;;;13.37;59.48
76815;BME280;65768;49.906;19.384;2023-04-30T10:06:27;98575.95;;;13.64;59.35
76815;BME280;65768;49.906;19.384;2023-04-30T10:12:01;98564.09;;;14.06;57.60
76815;BME280;65768;49.906;19.384;2023-04-30T10:14:54;98562.03;;;14.00;58.02
76815;BME280;65768;49.906;19.384;2023-04-30T10:17:39;98563.02;;;14.08;58.38
76815;BME280;65768;49.906;19.384;2023-04-30T10:20:34;98561.33;;;14.23;55.81
76815;BME280;65768;49.906;19.384;2023-04-30T10:23:06;98563.80;;;14.75;56.52
76815;BME280;65768;49.906;19.384;2023-04-30T10:25:58;98559.80;;;14.73;53.08
76815;BME280;65768;49.906;19.384;2023-04-30T10:28:34;98557.06;;;15.13;55.12
76815;BME280;65768;49.906;19.384;2023-04-30T10:31:16;98554.77;;;14.69;52.03
76815;BME280;65768;49.906;19.384;2023-04-30T10:40:06;98554.00;;;14.40;53.02
76815;BME280;65768;49.906;19.384;2023-04-30T10:42:57;98551.73;;;15.03;52.06
76815;BME280;65768;49.906;19.384;2023-04-30T10:45:53;98548.45;;;14.83;51.35
76815;BME280;65768;49.906;19.384;2023-04-30T10:48:24;98547.42;;;14.27;54.01
76815;BME280;65768;49.906;19.384;2023-04-30T10:51:09;98548.96;;;14.32;50.28
76815;BME280;65768;49.906;19.384;2023-04-30T10:53:50;98547.20;;;14.14;53.82
76815;BME280;65768;49.906;19.384;2023-04-30T10:56:39;98551.04;;;14.15;53.76
76815;BME280;65768;49.906;19.384;2023-04-30T10:59:11;98549.86;;;14.85;52.19
76815;BME280;65768;49.906;19.384;2023-04-30T11:02:10;98540.81;;;15.35;51.50
76815;BME280;65768;49.906;19.384;2023-04-30T11:07:56;98529.80;;;15.43;50.43
76815;BME280;65768;49.906;19.384;2023-04-30T11:10:32;98529.22;;;15.60;49.05
76815;BME280;65768;49.906;19.384;2023-04-30T11:13:13;98533.98;;;15.32;49.30
76815;BME280;65768;49.906;19.384;2023-04-30T11:15:44;98540.50;;;15.04;46.51
76815;BME280;65768;49.906;19.384;2023-04-30T11:18:18;98536.27;;;15.19;45.70
76815;BME280;65768;49.906;19.384;2023-04-30T11:20:53;98529.34;;;15.38;48.20
76815;BME280;65768;49.906;19.384;2023-04-30T11:23:29;98525.82;;;15.64;47.09
76815;BME280;65768;49.906;19.384;2023-04-30T11:26:10;98528.38;;;15.44;47.92
76815;BME280;65768;49.906;19.384;2023-04-30T11:28:49;98526.22;;;15.60;47.49
76815;BME280;65768;49.906;19.384;2023-04-30T11:31:22;98526.48;;;16.13;48.42
76815;BME280;65768;49.906;19.384;2023-04-30T11:34:20;98529.35;;;15.97;46.65
76815;BME280;65768;49.906;19.384;2023-04-30T11:36:49;98532.59;;;15.56;44.19
76815;BME280;65768;49.906;19.384;2023-04-30T11:39:24;98529.85;;;15.65;44.35
76815;BME280;65768;49.906;19.384;2023-04-30T11:41:53;98532.59;;;15.45;48.89
76815;BME280;65768;49.906;19.384;2023-04-30T11:44:28;98531.38;;;15.56;44.66
76815;BME280;65768;49.906;19.384;2023-04-30T11:47:26;98530.25;;;15.36;47.59
76815;BME280;65768;49.906;19.384;2023-04-30T11:49:58;98532.17;;;15.62;46.77
76815;BME280;65768;49.906;19.384;2023-04-30T11:52:38;98527.77;;;15.63;46.94
76815;BME280;65768;49.906;19.384;2023-04-30T11:55:18;98530.29;;;15.83;45.08
76815;BME280;65768;49.906;19.384;2023-04-30T11:57:57;98532.20;;;15.85;45.57
76815;BME280;65768;49.906;19.384;2023-04-30T12:00:49;98534.98;;;15.87;43.66
76815;BME280;65768;49.906;19.384;2023-04-30T12:03:22;98534.45;;;15.63;44.62
76815;BME280;65768;49.906;19.384;2023-04-30T12:06:00;98538.63;;;15.39;43.61
76815;BME280;65768;49.906;19.384;2023-04-30T12:08:45;98542.78;;;15.17;43.55
76815;BME280;65768;49.906;19.384;2023-04-30T12:11:25;98535.95;;;15.69;44.38
76815;BME280;65768;49.906;19.384;2023-04-30T12:14:06;98527.12;;;15.95;44.32
76815;BME280;65768;49.906;19.384;2023-04-30T12:16:45;98529.07;;;15.93;44.64
76815;BME280;65768;49.906;19.384;2023-04-30T12:19:18;98524.58;;;16.20;43.27
76815;BME280;65768;49.906;19.384;2023-04-30T12:21:48;98522.19;;;16.56;44.55
76815;BME280;65768;49.906;19.384;2023-04-30T12:24:26;98520.92;;;16.28;42.47
76815;BME280;65768;49.906;19.384;2023-04-30T12:27:03;98526.74;;;16.18;42.79
76815;BME280;65768;49.906;19.384;2023-04-30T12:29:39;98520.76;;;16.28;43.70
76815;BME280;65768;49.906;19.384;2023-04-30T12:32:17;98524.04;;;16.32;40.99
76815;BME280;65768;49.906;19.384;2023-04-30T12:34:46;98517.37;;;16.40;40.34
76815;BME280;65768;49.906;19.384;2023-04-30T12:37:29;98517.99;;;16.54;40.59
76815;BME280;65768;49.906;19.384;2023-04-30T12:39:58;98514.02;;;16.59;40.79
76815;BME280;65768;49.906;19.384;2023-04-30T12:42:31;98507.07;;;16.82;40.31
76815;BME280;65768;49.906;19.384;2023-04-30T12:45:04;98510.92;;;16.75;40.07
76815;BME280;65768;49.906;19.384;2023-04-30T12:47:52;98506.03;;;16.62;38.90
76815;BME280;65768;49.906;19.384;2023-04-30T12:50:21;98505.82;;;16.56;39.01
76815;BME280;65768;49.906;19.384;2023-04-30T12:52:52;98507.56;;;16.28;38.99
76815;BME280;65768;49.906;19.384;2023-04-30T12:55:23;98506.86;;;16.27;40.00
76815;BME280;65768;49.906;19.384;2023-04-30T12:58:06;98501.15;;;16.60;39.48
76815;BME280;65768;49.906;19.384;2023-04-30T13:00:49;98502.33;;;16.35;37.84
76815;BME280;65768;49.906;19.384;2023-04-30T13:03:23;98498.69;;;16.78;38.31
76815;BME280;65768;49.906;19.384;2023-04-30T13:05:54;98501.73;;;17.03;37.65
76815;BME280;65768;49.906;19.384;2023-04-30T13:08:26;98497.69;;;17.03;36.25
76815;BME280;65768;49.906;19.384;2023-04-30T13:10:57;98493.75;;;16.97;37.17
76815;BME280;65768;49.906;19.384;2023-04-30T13:13:28;98494.26;;;16.98;35.68
76815;BME280;65768;49.906;19.384;2023-04-30T13:15:59;98493.08;;;16.78;35.46
76815;BME280;65768;49.906;19.384;2023-04-30T13:18:36;98495.27;;;16.64;36.24
76815;BME280;65768;49.906;19.384;2023-04-30T13:21:17;98494.40;;;17.17;35.73
76815;BME280;65768;49.906;19.384;2023-04-30T13:23:48;98491.44;;;17.31;34.89
76815;BME280;65768;49.906;19.384;2023-04-30T13:26:17;98487.89;;;17.16;35.90
76815;BME280;65768;49.906;19.384;2023-04-30T13:28:51;98488.44;;;17.31;37.25
76815;BME280;65768;49.906;19.384;2023-04-30T13:31:20;98493.23;;;17.37;35.59
76815;BME280;65768;49.906;19.384;2023-04-30T13:33:52;98491.77;;;17.48;36.38
76815;BME280;65768;49.906;19.384;2023-04-30T13:36:22;98488.04;;;17.80;35.40
76815;BME280;65768;49.906;19.384;2023-04-30T13:38:53;98487.50;;;17.57;35.33
76815;BME280;65768;49.906;19.384;2023-04-30T13:41:21;98493.16;;;17.56;36.96
76815;BME280;65768;49.906;19.384;2023-04-30T13:43:50;98498.52;;;16.87;36.72
76815;BME280;65768;49.906;19.384;2023-04-30T13:46:21;98494.17;;;17.11;36.86
76815;BME280;65768;49.906;19.384;2023-04-30T13:48:49;98498.16;;;17.53;35.55
76815;BME280;65768;49.906;19.384;2023-04-30T13:51:20;98490.92;;;17.46;34.46
76815;BME280;65768;49.906;19.384;2023-04-30T13:53:48;98491.16;;;17.20;35.89
76815;BME280;65768;49.906;19.384;2023-04-30T13:56:16;98486.73;;;17.20;35.21
76815;BME280;65768;49.906;19.384;2023-04-30T13:58:47;98489.98;;;17.41;35.85
76815;BME280;65768;49.906;19.384;2023-04-30T14:01:27;98488.70;;;17.95;35.16
76815;BME280;65768;49.906;19.384;2023-04-30T14:03:55;98487.60;;;18.45;35.26
76815;BME280;65768;49.906;19.384;2023-04-30T14:06:27;98486.30;;;18.80;34.36
76815;BME280;65768;49.906;19.384;2023-04-30T14:09:01;98481.70;;;19.93;32.44
76815;BME280;65768;49.906;19.384;2023-04-30T14:11:38;98480.50;;;21.80;29.09
76815;BME280;65768;49.906;19.384;2023-04-30T14:14:09;98470.04;;;23.88;25.22
76815;BME280;65768;49.906;19.384;2023-04-30T14:16:38;98464.05;;;25.37;23.55
76815;BME280;65768;49.906;19.384;2023-04-30T14:19:09;98466.80;;;26.30;22.12
76815;BME280;65768;49.906;19.384;2023-04-30T14:21:43;98464.04;;;26.67;20.84
76815;BME280;65768;49.906;19.384;2023-04-30T14:24:11;98467.59;;;26.31;20.68
76815;BME280;65768;49.906;19.384;2023-04-30T14:26:43;98463.67;;;27.46;20.54
76815;BME280;65768;49.906;19.384;2023-04-30T14:29:13;98459.60;;;28.46;17.79
76815;BME280;65768;49.906;19.384;2023-04-30T14:31:41;98460.12;;;28.62;18.77
76815;BME280;65768;49.906;19.384;2023-04-30T14:34:12;98464.50;;;28.47;18.09
76815;BME280;65768;49.906;19.384;2023-04-30T14:36:41;98462.90;;;29.02;17.85
76815;BME280;65768;49.906;19.384;2023-04-30T14:39:12;98461.31;;;29.37;17.29
76815;BME280;65768;49.906;19.384;2023-04-30T14:41:41;98459.08;;;29.99;17.75
76815;BME280;65768;49.906;19.384;2023-04-30T14:44:12;98461.77;;;29.15;17.69
76815;BME280;65768;49.906;19.384;2023-04-30T14:46:40;98462.64;;;27.81;17.75
76815;BME280;65768;49.906;19.384;2023-04-30T14:49:09;98463.33;;;26.93;18.35
76815;BME280;65768;49.906;19.384;2023-04-30T14:51:38;98468.13;;;26.67;18.76
76815;BME280;65768;49.906;19.384;2023-04-30T14:54:06;98466.05;;;27.94;17.91
76815;BME280;65768;49.906;19.384;2023-04-30T14:56:37;98465.00;;;28.39;17.62
76815;BME280;65768;49.906;19.384;2023-04-30T14:59:06;98462.64;;;28.89;17.35
76815;BME280;65768;49.906;19.384;2023-04-30T15:01:36;98459.45;;;28.02;18.06
76815;BME280;65768;49.906;19.384;2023-04-30T15:04:04;98460.27;;;26.49;19.51
76815;BME280;65768;49.906;19.384;2023-04-30T15:06:33;98457.38;;;27.49;18.73
76815;BME280;65768;49.906;19.384;2023-04-30T15:09:02;98461.88;;;28.99;16.69
76815;BME280;65768;49.906;19.384;2023-04-30T15:11:31;98461.87;;;29.57;15.76
76815;BME280;65768;49.906;19.384;2023-04-30T15:13:59;98458.17;;;30.02;15.74
76815;BME280;65768;49.906;19.384;2023-04-30T15:16:28;98459.96;;;30.16;15.73
76815;BME280;65768;49.906;19.384;2023-04-30T15:18:56;98461.47;;;29.22;16.27
76815;BME280;65768;49.906;19.384;2023-04-30T15:21:24;98462.33;;;28.99;17.18
76815;BME280;65768;49.906;19.384;2023-04-30T15:23:53;98458.06;;;30.03;15.77
76815;BME280;65768;49.906;19.384;2023-04-30T15:26:21;98459.65;;;30.25;15.80
76815;BME280;65768;49.906;19.384;2023-04-30T15:28:49;98456.73;;;30.35;16.02
76815;BME280;65768;49.906;19.384;2023-04-30T15:31:18;98454.04;;;29.45;16.78
76815;BME280;65768;49.906;19.384;2023-04-30T15:33:46;98454.91;;;29.21;16.70
76815;BME280;65768;49.906;19.384;2023-04-30T15:36:14;98456.41;;;28.87;16.98
76815;BME280;65768;49.906;19.384;2023-04-30T15:38:42;98453.07;;;28.88;17.18
76815;BME280;65768;49.906;19.384;2023-04-30T15:41:10;98455.10;;;30.21;16.20
76815;BME280;65768;49.906;19.384;2023-04-30T15:43:38;98451.73;;;27.98;18.13
76815;BME280;65768;49.906;19.384;2023-04-30T15:46:06;98452.63;;;27.65;17.84
76815;BME280;65768;49.906;19.384;2023-04-30T15:48:34;98460.30;;;28.75;18.12
76815;BME280;65768;49.906;19.384;2023-04-30T15:51:02;98461.89;;;29.56;15.95
76815;BME280;65768;49.906;19.384;2023-04-30T15:53:31;98457.27;;;29.21;16.29
76815;BME280;65768;49.906;19.384;2023-04-30T15:55:59;98455.38;;;28.60;16.76
76815;BME280;65768;49.906;19.384;2023-04-30T15:58:27;98459.17;;;27.27;17.61
76815;BME280;65768;49.906;19.384;2023-04-30T16:00:55;98454.72;;;28.27;17.58
76815;BME280;65768;49.906;19.384;2023-04-30T16:03:24;98456.56;;;28.49;16.62
76815;BME280;65768;49.906;19.384;2023-04-30T16:05:53;98456.09;;;29.15;17.06
76815;BME280;65768;49.906;19.384;2023-04-30T16:08:21;98459.26;;;28.80;16.62
76815;BME280;65768;49.906;19.384;2023-04-30T16:10:49;98454.19;;;28.44;17.26
76815;BME280;65768;49.906;19.384;2023-04-30T16:13:17;98454.23;;;28.95;16.86
76815;BME280;65768;49.906;19.384;2023-04-30T16:15:45;98456.77;;;28.35;15.98
76815;BME280;65768;49.906;19.384;2023-04-30T16:18:14;98450.05;;;28.47;17.14
76815;BME280;65768;49.906;19.384;2023-04-30T16:20:44;98455.18;;;28.27;17.63
76815;BME280;65768;49.906;19.384;2023-04-30T16:23:14;98449.17;;;27.80;17.39
76815;BME280;65768;49.906;19.384;2023-04-30T16:25:43;98448.17;;;27.49;18.20
76815;BME280;65768;49.906;19.384;2023-04-30T16:28:11;98450.83;;;27.18;18.25
76815;BME280;65768;49.906;19.384;2023-04-30T16:30:42;98448.93;;;25.27;20.33
76815;BME280;65768;49.906;19.384;2023-04-30T16:33:10;98461.39;;;22.23;24.76
76815;BME280;65768;49.906;19.384;2023-04-30T16:35:38;98463.83;;;19.89;27.44
76815;BME280;65768;49.906;19.384;2023-04-30T16:38:06;98466.06;;;18.83;29.67
76815;BME280;65768;49.906;19.384;2023-04-30T16:40:35;98465.38;;;18.04;31.48
76815;BME280;65768;49.906;19.384;2023-04-30T16:43:03;98472.15;;;17.34;32.58
76815;BME280;65768;49.906;19.384;2023-04-30T16:45:35;98472.22;;;16.55;34.22
76815;BME280;65768;49.906;19.384;2023-04-30T16:48:07;98470.43;;;16.09;34.69
76815;BME280;65768;49.906;19.384;2023-04-30T16:50:35;98471.08;;;15.57;34.99
76815;BME280;65768;49.906;19.384;2023-04-30T16:53:04;98480.55;;;15.10;36.51
76815;BME280;65768;49.906;19.384;2023-04-30T16:55:33;98481.14;;;14.79;37.67
76815;BME280;65768;49.906;19.384;2023-04-30T16:58:07;98485.19;;;14.63;39.53
76815;BME280;65768;49.906;19.384;2023-04-30T17:00:44;98484.56;;;14.37;38.22
76815;BME280;65768;49.906;19.384;2023-04-30T17:03:18;98489.14;;;14.18;38.67
76815;BME280;65768;49.906;19.384;2023-04-30T17:06:24;98488.05;;;14.04;39.39
76815;BME280;65768;49.906;19.384;2023-04-30T17:08:55;98495.34;;;13.90;39.57
76815;BME280;65768;49.906;19.384;2023-04-30T17:11:48;98502.18;;;13.69;41.31
76815;BME280;65768;49.906;19.384;2023-04-30T17:14:22;98507.26;;;13.43;42.01
76815;BME280;65768;49.906;19.384;2023-04-30T17:17:00;98509.25;;;13.32;41.20
76815;BME280;65768;49.906;19.384;2023-04-30T17:20:01;98509.83;;;13.20;40.70
76815;BME280;65768;49.906;19.384;2023-04-30T17:22:53;98513.04;;;13.06;42.74
76815;BME280;65768;49.906;19.384;2023-04-30T17:25:25;98511.02;;;12.90;43.09
76815;BME280;65768;49.906;19.384;2023-04-30T17:28:17;98517.72;;;12.73;44.51
76815;BME280;65768;49.906;19.384;2023-04-30T17:33:59;98529.17;;;12.44;44.63
76815;BME280;65768;49.906;19.384;2023-04-30T17:36:48;98535.30;;;12.33;45.03
76815;BME280;65768;49.906;19.384;2023-04-30T17:39:34;98535.14;;;12.20;44.95
76815;BME280;65768;49.906;19.384;2023-04-30T17:42:26;98538.31;;;12.10;44.41
76815;BME280;65768;49.906;19.384;2023-04-30T17:45:20;98534.80;;;12.03;44.16
76815;BME280;65768;49.906;19.384;2023-04-30T17:48:11;98541.10;;;11.91;44.54
76815;BME280;65768;49.906;19.384;2023-04-30T17:54:21;98544.89;;;11.64;44.83
76815;BME280;65768;49.906;19.384;2023-04-30T18:00:17;98558.60;;;11.28;46.97
76815;BME280;65768;49.906;19.384;2023-04-30T18:06:35;98566.70;;;10.98;48.42
76815;BME280;65768;49.906;19.384;2023-04-30T18:09:21;98566.95;;;10.80;49.40
76815;BME280;65768;49.906;19.384;2023-04-30T18:12:34;98571.08;;;10.68;49.14
76815;BME280;65768;49.906;19.384;2023-04-30T18:15:27;98571.36;;;10.59;48.10
76815;BME280;65768;49.906;19.384;2023-04-30T18:21:12;98575.10;;;10.42;48.88
76815;BME280;65768;49.906;19.384;2023-04-30T18:27:04;98576.04;;;10.29;49.11
76815;BME280;65768;49.906;19.384;2023-04-30T18:29:48;98583.45;;;10.22;49.41
76815;BME280;65768;49.906;19.384;2023-04-30T18:32:37;98590.51;;;10.10;50.50
76815;BME280;65768;49.906;19.384;2023-04-30T18:38:46;98600.14;;;9.78;51.56
76815;BME280;65768;49.906;19.384;2023-04-30T18:44:49;98604.79;;;9.55;51.77
76815;BME280;65768;49.906;19.384;2023-04-30T18:48:10;98604.66;;;9.43;53.56
76815;BME280;65768;49.906;19.384;2023-04-30T18:54:47;98611.94;;;9.26;53.05
76815;BME280;65768;49.906;19.384;2023-04-30T18:57:44;98617.13;;;9.10;56.04
76815;BME280;65768;49.906;19.384;2023-04-30T19:10:52;98630.35;;;8.48;58.94
76815;BME280;65768;49.906;19.384;2023-04-30T19:36:51;98656.13;;;7.92;60.08
76815;BME280;65768;49.906;19.384;2023-04-30T19:43:18;98663.79;;;7.65;59.69
76815;BME280;65768;49.906;19.384;2023-04-30T20:58:04;98695.73;;;6.00;62.73
76815;BME280;65768;49.906;19.384;2023-04-30T21:18:07;98708.73;;;5.50;63.35
